createdAt,value
2019-01-15T00:00:33.127Z,55.85
2019-01-15T00:05:47.293Z,55.15
2019-01-15T00:20:49.436Z,56.43
2019-01-15T00:44:57.198Z,54.84
2019-01-15T01:27:21.051Z,53.42
2019-01-15T01:41:46.589Z,53.39
2019-01-15T01:55:35.725Z,52.84
2019-01-15T02:29:14.698Z,54.77
2019-01-15T02:33:33.151Z,54.04
2019-01-15T02:47:49.334Z,54.60
2019-01-15T02:51:54.989Z,53.78
2019-01-15T02:56:00.673Z,54.49
2019-01-15T03:00:17.359Z,54.95
2019-01-15T03:04:23.043Z,54.47
2019-01-15T03:08:28.732Z,55.27
2019-01-15T03:12:35.380Z,54.59
2019-01-15T03:16:41.097Z,55.10
2019-01-15T03:20:46.804Z,55.09
2019-01-15T03:24:52.496Z,54.61
2019-01-15T03:28:58.165Z,54.17
2019-01-15T03:33:03.895Z,53.70
2019-01-15T03:37:09.565Z,54.39
2019-01-15T03:41:15.326Z,54.45
2019-01-15T03:45:21.075Z,55.21
2019-01-15T03:49:26.761Z,54.48
2019-01-15T03:53:32.493Z,54.46
2019-01-15T03:57:38.458Z,53.91
2019-01-15T04:01:44.139Z,54.54
2019-01-15T04:05:49.832Z,54.10
2019-01-15T04:09:55.558Z,54.89
2019-01-15T04:14:02.581Z,55.22
2019-01-15T04:18:08.267Z,55.94
2019-01-15T04:22:13.993Z,55.93
2019-01-15T04:26:19.735Z,56.20
2019-01-15T04:30:25.632Z,56.34
2019-01-15T04:34:31.334Z,56.51
2019-01-15T04:38:37.006Z,57.34
2019-01-15T04:42:42.696Z,57.35
2019-01-15T04:46:48.379Z,57.19
2019-01-15T04:50:54.042Z,57.09
2019-01-15T04:54:59.728Z,56.96
2019-01-15T04:59:05.551Z,57.50
2019-01-15T05:03:11.608Z,57.45
2019-01-15T05:07:17.294Z,57.73
2019-01-15T05:11:22.959Z,57.55
2019-01-15T05:15:28.661Z,57.53
2019-01-15T05:19:34.406Z,57.39
2019-01-15T05:23:40.111Z,57.56
2019-01-15T05:27:45.895Z,57.72
2019-01-15T05:31:51.581Z,57.78
2019-01-15T05:35:57.285Z,57.78
2019-01-15T05:40:02.963Z,57.50
2019-01-15T05:44:10.170Z,57.81
2019-01-15T05:48:17.549Z,57.93
2019-01-15T05:52:23.233Z,58.02
2019-01-15T05:56:28.939Z,56.85
2019-01-15T06:00:34.666Z,55.99
2019-01-15T06:04:40.338Z,56.01
2019-01-15T06:08:46.001Z,55.79
2019-01-15T06:12:51.687Z,56.09
2019-01-15T06:16:57.372Z,55.93
2019-01-15T06:21:03.117Z,55.60
2019-01-15T06:25:10.808Z,55.52
2019-01-15T06:29:16.660Z,55.40
2019-01-15T06:33:22.341Z,55.72
2019-01-15T06:37:28.027Z,55.90
2019-01-15T06:41:33.786Z,55.95
2019-01-15T06:45:39.460Z,55.13
2019-01-15T06:49:45.216Z,54.52
2019-01-15T06:53:50.902Z,54.49
2019-01-15T06:57:56.586Z,54.14
2019-01-15T07:02:02.274Z,54.00
2019-01-15T07:06:07.954Z,54.30
2019-01-15T07:10:24.342Z,54.39
2019-01-15T07:14:30.035Z,54.53
2019-01-15T07:18:35.719Z,54.44
2019-01-15T07:22:41.394Z,54.21
2019-01-15T07:26:47.151Z,54.87
2019-01-15T07:30:52.905Z,54.57
2019-01-15T07:34:58.591Z,54.14
2019-01-15T07:39:07.176Z,54.30
2019-01-15T07:43:12.848Z,54.65
2019-01-15T07:47:18.615Z,55.24
2019-01-15T07:51:24.299Z,55.22
2019-01-15T07:55:29.985Z,55.46
2019-01-15T07:59:35.670Z,55.03
2019-01-15T08:03:41.330Z,55.47
2019-01-15T08:07:47.184Z,55.34
2019-01-15T08:11:52.884Z,55.68
2019-01-15T08:15:58.572Z,55.49
2019-01-15T08:20:06.309Z,55.47
2019-01-15T08:24:11.990Z,55.34
2019-01-15T08:28:17.677Z,55.34
2019-01-15T08:36:34.484Z,55.39
2019-01-15T08:40:40.145Z,54.79
2019-01-15T08:44:45.997Z,54.77
2019-01-15T08:48:51.681Z,54.44
2019-01-15T08:52:57.489Z,53.90
2019-01-15T08:57:03.169Z,54.21
2019-01-15T09:01:08.907Z,53.51
2019-01-15T09:05:14.734Z,53.34
2019-01-15T09:09:20.411Z,52.51
2019-01-15T09:13:26.169Z,52.64
2019-01-15T09:17:31.902Z,52.82
2019-01-15T09:21:37.595Z,53.88
2019-01-15T09:25:43.291Z,53.70
2019-01-15T09:29:48.961Z,52.50
2019-01-15T09:33:54.705Z,52.42
2019-01-15T09:38:00.858Z,52.64
2019-01-15T09:42:06.612Z,52.87
2019-01-15T09:46:12.362Z,52.10
2019-01-15T09:50:19.559Z,52.03
2019-01-15T09:54:25.288Z,51.07
2019-01-15T09:58:31.088Z,50.00
2019-01-15T10:02:36.944Z,48.76
2019-01-15T10:06:42.624Z,46.39
2019-01-15T10:10:48.439Z,44.03
2019-01-15T10:14:54.193Z,43.75
2019-01-15T10:18:59.908Z,42.84
2019-01-15T10:23:05.837Z,44.21
2019-01-15T10:27:12.488Z,45.92
2019-01-15T10:31:58.820Z,45.75
2019-01-15T10:36:02.979Z,44.85
2019-01-15T10:40:08.764Z,45.73
2019-01-15T10:44:14.520Z,47.13
2019-01-15T10:48:20.317Z,47.54
2019-01-15T10:52:26.892Z,47.67
2019-01-15T10:56:51.060Z,47.80
2019-01-15T11:00:56.742Z,47.21
2019-01-15T11:05:50.317Z,45.80
2019-01-15T11:09:56.015Z,44.93
2019-01-15T11:14:56.118Z,43.20
2019-01-15T11:18:57.742Z,42.79
2019-01-15T11:23:51.230Z,41.87
2019-01-15T11:27:56.991Z,41.35
2019-01-15T11:37:36.240Z,40.14
2019-01-15T11:41:42.007Z,38.34
2019-01-15T11:45:47.789Z,36.00
2019-01-15T11:49:53.499Z,33.28
2019-01-15T11:53:59.183Z,33.84
2019-01-15T11:58:05.019Z,35.90
2019-01-15T12:02:12.359Z,39.36
2019-01-15T12:06:34.385Z,40.40
2019-01-15T12:10:42.551Z,40.84
2019-01-15T12:15:10.794Z,41.71
2019-01-15T12:19:15.492Z,42.56
2019-01-15T12:23:38.572Z,43.16
2019-01-15T12:27:50.034Z,43.99
2019-01-15T12:31:57.376Z,44.50
2019-01-15T12:36:13.664Z,45.17
2019-01-15T12:40:33.073Z,44.15
2019-01-15T12:44:46.125Z,43.80
2019-01-15T12:49:09.616Z,44.22
2019-01-15T12:53:26.762Z,45.22
2019-01-15T12:57:36.799Z,44.97
2019-01-15T13:01:50.051Z,46.08
2019-01-15T13:06:14.009Z,46.60
2019-01-15T13:10:37.171Z,46.87
2019-01-15T13:14:50.148Z,46.71
2019-01-15T13:18:58.565Z,46.95
2019-01-15T13:23:11.945Z,47.02
2019-01-15T13:27:25.138Z,47.33
2019-01-15T13:31:38.285Z,47.36
2019-01-15T13:36:00.735Z,47.14
2019-01-15T13:40:28.358Z,47.00
2019-01-15T13:44:50.557Z,47.54
2019-01-15T13:48:56.169Z,47.00
2019-01-15T13:53:18.426Z,47.07
2019-01-15T13:57:41.671Z,47.01
2019-01-15T14:01:49.892Z,47.22
2019-01-15T14:06:01.111Z,47.72
2019-01-15T14:10:16.339Z,47.79
2019-01-15T14:14:23.658Z,47.66
2019-01-15T14:18:36.920Z,47.44
2019-01-15T14:23:00.441Z,47.30
2019-01-15T14:27:10.523Z,46.97
2019-01-15T14:31:26.745Z,46.87
2019-01-15T14:35:50.265Z,47.29
2019-01-15T14:40:13.138Z,47.11
2019-01-15T14:44:38.540Z,46.80
2019-01-15T14:48:45.884Z,46.93
2019-01-15T14:52:51.335Z,46.80
2019-01-15T14:57:02.090Z,46.95
2019-01-15T15:01:25.533Z,47.07
2019-01-15T15:05:35.248Z,47.16
2019-01-15T15:09:45.302Z,47.20
2019-01-15T15:13:53.674Z,46.91
2019-01-15T15:18:06.823Z,46.79
2019-01-15T15:22:14.285Z,46.71
2019-01-15T15:26:21.630Z,47.03
2019-01-15T15:30:35.164Z,47.36
2019-01-15T15:34:58.380Z,47.29
2019-01-15T15:39:15.865Z,47.67
2019-01-15T15:43:23.190Z,47.87
2019-01-15T15:47:39.227Z,47.24
2019-01-15T15:52:04.449Z,47.37
2019-01-15T15:56:28.025Z,47.37
2019-01-15T16:00:35.359Z,48.23
2019-01-15T16:04:42.685Z,48.43
2019-01-15T16:09:05.917Z,49.26
2019-01-15T16:13:16.282Z,48.84
2019-01-15T16:17:39.895Z,49.38
2019-01-15T16:21:47.223Z,49.41
2019-01-15T16:25:57.564Z,49.16
2019-01-15T16:30:11.705Z,49.00
2019-01-15T16:34:22.952Z,49.71
2019-01-15T16:38:31.377Z,49.55
2019-01-15T16:42:54.403Z,48.99
2019-01-15T16:47:07.336Z,48.46
2019-01-15T16:51:30.938Z,48.92
2019-01-15T16:55:55.824Z,48.94
2019-01-15T17:00:18.305Z,49.28
2019-01-15T17:04:41.496Z,49.07
2019-01-15T17:09:03.703Z,49.15
2019-01-15T17:13:23.942Z,48.92
2019-01-15T17:17:41.119Z,48.81
2019-01-15T17:21:57.477Z,48.47
2019-01-15T17:26:07.447Z,48.80
2019-01-15T17:30:19.876Z,48.81
2019-01-15T17:34:27.276Z,49.14
2019-01-15T17:38:46.765Z,49.83
2019-01-15T17:42:56.785Z,49.91
2019-01-15T17:47:15.697Z,50.35
2019-01-15T17:51:29.135Z,51.02
2019-01-15T17:55:45.192Z,50.73
2019-01-15T17:59:58.454Z,50.15
2019-01-15T18:04:18.010Z,50.10
2019-01-15T18:08:32.389Z,49.92
2019-01-15T18:12:39.752Z,50.14
2019-01-15T18:17:01.935Z,50.47
2019-01-15T18:21:07.392Z,50.03
2019-01-15T18:25:17.836Z,49.58
2019-01-15T18:29:36.920Z,49.59
2019-01-15T18:33:51.173Z,49.72
2019-01-15T18:38:16.830Z,49.35
2019-01-15T18:42:26.950Z,49.55
2019-01-15T18:46:37.134Z,49.50
2019-01-15T18:50:56.566Z,49.73
2019-01-15T18:55:12.959Z,50.05
2019-01-15T18:59:20.329Z,50.11
2019-01-15T19:03:27.662Z,50.46
2019-01-15T19:07:37.408Z,50.32
2019-01-15T19:11:56.787Z,50.10
2019-01-15T19:16:21.901Z,50.14
2019-01-15T19:20:37.904Z,50.67
2019-01-15T19:24:48.837Z,50.84
2019-01-15T19:28:56.232Z,50.80
2019-01-15T19:33:12.067Z,50.82
2019-01-15T19:37:19.377Z,50.95
2019-01-15T19:41:32.270Z,50.98
2019-01-15T19:45:46.888Z,50.87
2019-01-15T19:50:00.252Z,51.55
2019-01-15T19:54:23.519Z,51.82
2019-01-15T19:58:43.302Z,52.18
2019-01-15T20:02:57.627Z,51.98
2019-01-15T20:07:10.898Z,51.94
2019-01-15T20:11:19.017Z,51.75
2019-01-15T20:15:47.058Z,51.57
2019-01-15T20:20:10.247Z,50.72
2019-01-15T20:24:33.527Z,50.93
2019-01-15T20:28:40.880Z,51.24
2019-01-15T20:32:48.204Z,50.70
2019-01-15T20:36:55.640Z,50.76
2019-01-15T20:41:06.845Z,50.75
2019-01-15T20:45:53.558Z,50.55
2019-01-15T20:50:03.743Z,50.67
2019-01-15T20:54:13.856Z,50.56
2019-01-15T20:58:55.711Z,50.46
2019-01-15T21:03:19.011Z,50.35
2019-01-15T21:07:32.123Z,49.92
2019-01-15T21:12:10.919Z,49.96
2019-01-15T21:16:22.003Z,50.55
2019-01-15T21:20:45.139Z,50.53
2019-01-15T21:24:52.537Z,50.57
2019-01-15T21:29:15.092Z,51.11
2019-01-15T21:33:28.369Z,50.95
2019-01-15T21:37:33.844Z,50.61
2019-01-15T21:41:41.167Z,50.13
2019-01-15T21:45:50.946Z,49.85
2019-01-15T21:50:00.992Z,50.32
2019-01-15T21:54:08.382Z,50.28
2019-01-15T21:58:15.712Z,49.71
2019-01-15T22:02:38.223Z,49.42
2019-01-15T22:06:48.087Z,49.23
2019-01-15T22:10:58.154Z,48.99
2019-01-15T22:20:01.079Z,48.00
2019-01-15T22:24:24.219Z,47.88
2019-01-15T22:28:34.541Z,47.64
2019-01-15T22:32:44.548Z,47.86
2019-01-15T22:36:51.877Z,48.23
2019-01-15T22:40:59.196Z,48.50
2019-01-15T22:45:09.904Z,48.27
2019-01-15T22:49:33.201Z,48.09
2019-01-15T22:53:44.287Z,48.34
2019-01-15T22:58:03.213Z,48.01
2019-01-15T23:02:16.548Z,48.32
2019-01-15T23:06:25.865Z,48.54
2019-01-15T23:10:42.342Z,48.92
2019-01-15T23:14:49.720Z,49.46
2019-01-15T23:19:02.982Z,49.44
2019-01-15T23:23:09.022Z,49.75
2019-01-15T23:27:19.090Z,49.63
2019-01-15T23:31:26.968Z,49.75
2019-01-15T23:35:47.329Z,49.66
2019-01-15T23:39:57.351Z,49.62
2019-01-15T23:44:10.099Z,49.59
2019-01-15T23:48:33.497Z,49.73
2019-01-15T23:52:43.587Z,49.56
2019-01-15T23:56:56.876Z,48.95
